Snow/Ice From: 16-12-2017 16:00 Until: 17-12-2017 16:00 warning for: Snow/Ice Level: Yellow info button

Although rather usual in this region, locally or potentially dangerous phenomena are expected. (such as local winds, summer thunderstorms, rising streams or high waves) Be aware and pay attention to the latest weather updates, especially if you carry out activities exposed to weather or close to a stream or shoreline. 


Meteo18 Weather Cam more information Meteo18 Weather Cam


Thunder radar more information blitzortung!


warning for Snow/Ice more information rain snow radar


Visit our other weather sites:

Template documentation
and downloads

And another site



Weather Underground History page Text

Daily Summary for July 25, 2016 Units:  Metric    English   Both
« Previous Day
Next Day »
Daily Weekly Monthly Yearly Custom
  High: Low: Average:
Temperature: 30.1 °C 14.5 °C 23 °C
Dew Point: 17.9 °C 13.3 °C 15.5 °C
Humidity: 94 % 41 % 66 %
Wind Speed: 12.9 km/h 0.0 km/h 1.3 km/h
Wind Gust: 12.9 km/h - -
Wind:- - SW
Pressure: 1020.2 hPa 1018.5 hPa -
Precipitation: 1.0 mm    
Historical Graphs
 
 
Tabular Data for July 25, 2016
Time Temperature Dew Point Pressure Wind Wind Speed Wind Gust Humidity Rainfall Rate (Hourly)
00:02 17.3 °C 14.4 °C 1020.2 hPa Calm     83 % 0.0 mm
00:07 17.2 °C 14.3 °C 1019.9 hPa Calm     83 % 0.0 mm
00:12 17.1 °C 14.2 °C 1019.9 hPa Calm     83 % 0.0 mm
00:17 17.1 °C 14.2 °C 1019.9 hPa Calm     83 % 0.0 mm
00:22 17.0 °C 14.1 °C 1019.9 hPa Calm     83 % 0.0 mm
00:27 16.9 °C 14.0 °C 1019.9 hPa Calm     83 % 0.0 mm
00:32 16.8 °C 14.1 °C 1019.9 hPa Calm     84 % 0.0 mm
00:37 16.7 °C 14.2 °C 1019.9 hPa Calm     85 % 0.0 mm
00:42 16.6 °C 14.2 °C 1019.9 hPa Calm     86 % 0.0 mm
00:47 16.6 °C 14.2 °C 1019.9 hPa Calm     86 % 0.0 mm
00:52 16.4 °C 14.1 °C 1019.9 hPa Calm     86 % 0.0 mm
00:57 16.4 °C 14.1 °C 1019.9 hPa Calm     86 % 0.0 mm
01:02 16.4 °C 14.2 °C 1019.9 hPa Calm     87 % 0.0 mm
01:12 16.5 °C 14.1 °C 1019.9 hPa Calm     86 % 0.0 mm
01:17 16.5 °C 14.1 °C 1019.9 hPa Calm     86 % 0.0 mm
01:22 16.4 °C 14.1 °C 1019.9 hPa Calm     86 % 0.0 mm
01:32 16.1 °C 13.8 °C 1019.9 hPa Calm     86 % 0.0 mm
01:37 16.0 °C 13.8 °C 1019.9 hPa Calm     87 % 0.0 mm
01:42 15.9 °C 13.7 °C 1019.5 hPa Calm     87 % 0.0 mm
01:47 15.9 °C 13.9 °C 1019.5 hPa Calm     88 % 0.0 mm
01:52 15.8 °C 13.8 °C 1019.9 hPa Calm     88 % 0.0 mm
01:57 15.7 °C 13.7 °C 1019.9 hPa Calm     88 % 0.0 mm
02:02 15.7 °C 13.9 °C 1019.9 hPa Calm     89 % 0.0 mm
02:07 15.7 °C 13.7 °C 1019.5 hPa Calm     88 % 0.0 mm
02:12 15.6 °C 13.6 °C 1019.5 hPa Calm     88 % 0.0 mm
02:22 15.5 °C 13.7 °C 1019.5 hPa Calm     89 % 0.0 mm
02:27 15.5 °C 13.9 °C 1019.9 hPa Calm     90 % 0.0 mm
02:32 15.6 °C 13.8 °C 1019.9 hPa Calm     89 % 0.0 mm
02:37 15.7 °C 13.9 °C 1019.9 hPa Calm     89 % 0.0 mm
02:42 15.7 °C 13.9 °C 1019.9 hPa Calm     89 % 0.0 mm
02:47 15.7 °C 13.7 °C 1019.9 hPa Calm     88 % 0.0 mm
02:52 15.7 °C 13.7 °C 1019.9 hPa Calm     88 % 0.0 mm
02:57 15.6 °C 13.4 °C 1019.9 hPa Calm     87 % 0.0 mm
03:02 15.6 °C 13.6 °C 1019.9 hPa Calm     88 % 0.0 mm
03:12 15.7 °C 13.9 °C 1019.9 hPa Calm     89 % 0.0 mm
03:17 15.7 °C 13.7 °C 1019.9 hPa Calm     88 % 0.0 mm
03:22 15.6 °C 13.4 °C 1019.9 hPa Calm     87 % 0.0 mm
03:27 15.6 °C 13.6 °C 1019.5 hPa Calm     88 % 0.0 mm
03:32 15.7 °C 13.9 °C 1019.5 hPa Calm     89 % 0.0 mm
03:37 15.7 °C 13.7 °C 1019.5 hPa Calm     88 % 0.0 mm
03:42 15.8 °C 14.0 °C 1019.5 hPa Calm     89 % 0.0 mm
03:47 15.9 °C 13.9 °C 1019.5 hPa Calm     88 % 0.0 mm
03:52 16.0 °C 14.0 °C 1019.5 hPa Calm     88 % 0.0 mm
03:57 16.1 °C 14.1 °C 1019.5 hPa Calm     88 % 0.0 mm
04:07 16.1 °C 14.1 °C 1019.5 hPa Calm     88 % 0.0 mm
04:12 16.3 °C 14.3 °C 1019.5 hPa Calm     88 % 0.0 mm
04:17 16.4 °C 14.4 °C 1019.5 hPa Calm     88 % 0.0 mm
04:22 16.5 °C 14.5 °C 1019.5 hPa Calm     88 % 0.0 mm
04:27 16.6 °C 14.6 °C 1019.5 hPa Calm     88 % 0.0 mm
04:37 16.7 °C 14.3 °C 1019.5 hPa Calm     86 % 0.0 mm
04:47 16.7 °C 14.3 °C 1019.5 hPa Calm     86 % 0.0 mm
04:57 16.6 °C 14.1 °C 1019.2 hPa Calm     85 % 0.0 mm
05:02 16.4 °C 13.9 °C 1019.2 hPa Calm     85 % 0.0 mm
05:12 16.0 °C 13.7 °C 1019.2 hPa Calm     86 % 0.0 mm
05:17 15.7 °C 13.4 °C 1019.2 hPa Calm     86 % 0.0 mm
05:22 15.6 °C 13.4 °C 1019.2 hPa Calm     87 % 0.0 mm
05:32 15.3 °C 13.5 °C 1019.2 hPa Calm     89 % 0.0 mm
05:42 15.1 °C 13.5 °C 1019.2 hPa Calm     90 % 0.0 mm
05:52 14.9 °C 13.4 °C 1019.2 hPa Calm     91 % 0.0 mm
06:02 14.8 °C 13.3 °C 1019.2 hPa Calm     91 % 0.0 mm
06:12 14.7 °C 13.4 °C 1019.2 hPa Calm     92 % 0.0 mm
06:17 14.6 °C 13.3 °C 1019.5 hPa Calm     92 % 0.0 mm
06:22 14.6 °C 13.5 °C 1019.2 hPa Calm     93 % 0.0 mm
06:32 14.6 °C 13.5 °C 1019.5 hPa Calm     93 % 0.0 mm
06:42 14.6 °C 13.5 °C 1019.2 hPa Calm     93 % 0.0 mm
06:52 14.6 °C 13.6 °C 1019.5 hPa Calm     94 % 0.0 mm
07:02 14.5 °C 13.5 °C 1019.2 hPa Calm     94 % 0.0 mm
07:12 14.6 °C 13.6 °C 1019.5 hPa Calm     94 % 0.0 mm
07:17 14.8 °C 13.8 °C 1019.5 hPa Calm     94 % 0.0 mm
07:22 14.9 °C 13.9 °C 1019.5 hPa Calm     94 % 0.0 mm
07:32 15.2 °C 14.2 °C 1019.5 hPa Calm     94 % 0.0 mm
07:37 15.4 °C 14.4 °C 1019.5 hPa Calm     94 % 0.0 mm
07:42 15.7 °C 14.7 °C 1019.5 hPa Calm     94 % 0.0 mm
07:47 15.9 °C 14.9 °C 1019.5 hPa Calm     94 % 0.0 mm
07:52 16.1 °C 15.0 °C 1019.5 hPa Calm     93 % 0.0 mm
07:57 16.3 °C 15.2 °C 1019.5 hPa Calm     93 % 0.0 mm
08:02 16.6 °C 15.5 °C 1019.5 hPa Calm     93 % 0.0 mm
08:12 16.9 °C 15.2 °C 1019.5 hPa Calm     90 % 0.0 mm
08:17 17.3 °C 15.5 °C 1019.5 hPa Calm     89 % 0.0 mm
08:22 17.6 °C 15.6 °C 1019.9 hPa Calm     88 % 0.0 mm
08:32 18.4 °C 15.6 °C 1019.9 hPa Calm     84 % 0.0 mm
08:42 19.0 °C 15.9 °C 1019.9 hPa Calm     82 % 0.0 mm
08:47 19.2 °C 16.1 °C 1019.9 hPa Calm     82 % 0.0 mm
08:52 19.4 °C 15.9 °C 1019.9 hPa Calm     80 % 0.0 mm
08:57 19.7 °C 16.0 °C 1019.9 hPa Calm     79 % 0.0 mm
09:02 19.9 °C 16.3 °C 1019.9 hPa Calm     80 % 0.0 mm
09:12 20.2 °C 16.4 °C 1019.9 hPa Calm     79 % 0.0 mm
09:17 20.2 °C 16.0 °C 1019.9 hPa Calm     77 % 0.0 mm
09:22 20.3 °C 16.1 °C 1019.9 hPa Calm     77 % 0.0 mm
09:32 20.3 °C 15.9 °C 1019.9 hPa Calm     76 % 0.0 mm
09:42 20.6 °C 16.2 °C 1019.9 hPa Calm     76 % 0.0 mm
09:47 20.6 °C 15.8 °C 1019.9 hPa Calm     74 % 0.0 mm
09:52 20.7 °C 16.1 °C 1019.9 hPa Calm     75 % 0.0 mm
10:02 21.7 °C 16.4 °C 1019.9 hPa Calm     72 % 0.0 mm
10:12 22.9 °C 17.1 °C 1019.9 hPa Calm     70 % 0.0 mm
10:22 22.9 °C 16.9 °C 1019.9 hPa Calm     69 % 0.0 mm
10:32 23.3 °C 17.3 °C 1019.9 hPa Calm     69 % 0.0 mm
10:37 23.6 °C 16.6 °C 1019.9 hPa Calm     65 % 0.0 mm
10:42 23.8 °C 17.3 °C 1019.9 hPa Calm     67 % 0.0 mm
10:47 24.1 °C 17.3 °C 1019.9 hPa Calm     66 % 0.0 mm
10:52 24.4 °C 17.1 °C 1019.9 hPa Calm     64 % 0.0 mm
10:57 24.6 °C 17.3 °C 1019.9 hPa Calm     64 % 0.0 mm
11:02 24.9 °C 17.6 °C 1019.9 hPa Calm     64 % 0.0 mm
11:07 25.3 °C 17.2 °C 1019.9 hPa Calm     61 % 0.0 mm
11:12 25.5 °C 17.4 °C 1019.9 hPa Calm     61 % 0.0 mm
11:17 25.8 °C 17.4 °C 1019.9 hPa Calm     60 % 0.0 mm
11:22 26.2 °C 17.3 °C 1019.9 hPa Calm     58 % 0.0 mm
11:27 26.2 °C 16.7 °C 1019.9 hPa Calm     56 % 0.0 mm
11:32 26.4 °C 16.9 °C 1020.2 hPa Calm     56 % 0.0 mm
11:37 26.9 °C 17.4 °C 1019.9 hPa Calm     56 % 0.0 mm
11:42 27.3 °C 17.2 °C 1019.9 hPa Calm     54 % 0.0 mm
11:47 27.3 °C 17.2 °C 1020.2 hPa Calm     54 % 0.0 mm
11:52 27.3 °C 16.6 °C 1020.2 hPa ENE 3.2 km/h   52 % 0.0 mm
12:02 27.3 °C 16.3 °C 1019.9 hPa ENE 4.8 km/h 6.4 km/h 51 % 0.0 mm
12:12 27.1 °C 15.5 °C 1019.9 hPa Calm   8.0 km/h 49 % 0.0 mm
12:17 27.4 °C 16.7 °C 1019.9 hPa Calm   8.0 km/h 52 % 0.0 mm
12:22 28.0 °C 16.3 °C 1019.9 hPa East 3.2 km/h 6.4 km/h 49 % 0.0 mm
12:27 28.1 °C 16.7 °C 1019.9 hPa East 1.6 km/h 6.4 km/h 50 % 0.0 mm
12:32 28.4 °C 15.7 °C 1019.9 hPa Calm   6.4 km/h 46 % 0.0 mm
12:37 28.7 °C 16.3 °C 1019.9 hPa ENE 3.2 km/h 6.4 km/h 47 % 0.0 mm
12:42 28.6 °C 16.8 °C 1019.9 hPa East 1.6 km/h 6.4 km/h 49 % 0.0 mm
12:47 28.7 °C 15.9 °C 1019.9 hPa Calm   8.0 km/h 46 % 0.0 mm
12:52 28.9 °C 15.8 °C 1019.9 hPa WSW 3.2 km/h 8.0 km/h 45 % 0.0 mm
12:57 29.3 °C 17.2 °C 1019.9 hPa East 4.8 km/h 4.8 km/h 48 % 0.0 mm
13:02 29.1 °C 16.6 °C 1019.9 hPa SE 3.2 km/h 4.8 km/h 47 % 0.0 mm
13:07 29.1 °C 17.0 °C 1019.9 hPa ENE 3.2 km/h 8.0 km/h 48 % 0.0 mm
13:12 29.2 °C 16.7 °C 1019.9 hPa ENE 3.2 km/h 9.7 km/h 47 % 0.0 mm
13:17 29.2 °C 16.7 °C 1019.9 hPa NE 4.8 km/h 9.7 km/h 47 % 0.0 mm
13:22 29.2 °C 15.7 °C 1019.9 hPa NW 1.6 km/h 9.7 km/h 44 % 0.0 mm
13:32 28.8 °C 16.4 °C 1019.9 hPa ENE 1.6 km/h 9.7 km/h 47 % 0.0 mm
13:37 28.3 °C 15.6 °C 1019.9 hPa East 3.2 km/h 9.7 km/h 46 % 0.0 mm
13:42 28.1 °C 15.7 °C 1019.5 hPa Calm   9.7 km/h 47 % 0.0 mm
13:47 28.3 °C 16.6 °C 1019.5 hPa East 1.6 km/h 8.0 km/h 49 % 0.0 mm
13:57 29.4 °C 16.6 °C 1019.9 hPa SE 1.6 km/h 4.8 km/h 46 % 0.0 mm
14:02 29.5 °C 15.6 °C 1019.9 hPa East 3.2 km/h 4.8 km/h 43 % 0.0 mm
14:07 29.0 °C 16.2 °C 1019.5 hPa NE 3.2 km/h 8.0 km/h 46 % 0.0 mm
14:12 28.6 °C 15.5 °C 1019.5 hPa Calm   8.0 km/h 45 % 0.0 mm
14:17 28.6 °C 15.5 °C 1019.5 hPa Calm   6.4 km/h 45 % 0.0 mm
14:22 28.8 °C 15.3 °C 1019.5 hPa Calm   6.4 km/h 44 % 0.0 mm
14:32 28.9 °C 16.1 °C 1019.5 hPa NE 3.2 km/h 4.8 km/h 46 % 0.0 mm
14:37 28.8 °C 15.3 °C 1019.5 hPa Calm   4.8 km/h 44 % 0.0 mm
14:42 29.1 °C 15.6 °C 1019.5 hPa Calm   4.8 km/h 44 % 0.0 mm
14:47 29.3 °C 15.8 °C 1019.5 hPa Calm   4.8 km/h 44 % 0.0 mm
14:52 29.2 °C 16.0 °C 1019.5 hPa WSW 1.6 km/h 4.8 km/h 45 % 0.0 mm
14:57 29.2 °C 16.4 °C 1019.5 hPa Calm   3.2 km/h 46 % 0.0 mm
15:02 29.3 °C 16.1 °C 1019.5 hPa Calm   3.2 km/h 45 % 0.0 mm
15:07 29.3 °C 16.1 °C 1019.5 hPa Calm   4.8 km/h 45 % 0.0 mm
15:12 29.3 °C 16.1 °C 1019.5 hPa Calm   4.8 km/h 45 % 0.0 mm
15:17 29.2 °C 15.7 °C 1019.5 hPa Calm   3.2 km/h 44 % 0.0 mm
15:22 28.8 °C 15.7 °C 1019.5 hPa Calm   3.2 km/h 45 % 0.0 mm
15:27 28.7 °C 15.6 °C 1019.5 hPa Calm     45 % 0.0 mm
15:32 28.8 °C 16.0 °C 1019.5 hPa Calm     46 % 0.0 mm
15:42 28.8 °C 16.4 °C 1019.5 hPa Calm     47 % 0.0 mm
15:47 28.7 °C 15.9 °C 1019.5 hPa Calm   4.8 km/h 46 % 0.0 mm
15:52 29.1 °C 16.0 °C 1019.2 hPa Calm   4.8 km/h 45 % 0.0 mm
15:57 29.4 °C 16.6 °C 1019.5 hPa Calm   4.8 km/h 46 % 0.0 mm
16:02 29.4 °C 16.9 °C 1019.2 hPa Calm   4.8 km/h 47 % 0.0 mm
16:07 29.3 °C 15.8 °C 1019.2 hPa Calm     44 % 0.0 mm
16:12 29.3 °C 16.1 °C 1019.2 hPa Calm     45 % 0.0 mm
16:17 29.2 °C 15.7 °C 1019.2 hPa ENE 1.6 km/h 4.8 km/h 44 % 0.0 mm
16:22 28.8 °C 15.3 °C 1019.2 hPa Calm   4.8 km/h 44 % 0.0 mm
16:32 28.9 °C 15.4 °C 1019.2 hPa Calm   6.4 km/h 44 % 0.0 mm
16:37 29.2 °C 15.3 °C 1019.2 hPa Calm   1.6 km/h 43 % 0.0 mm
16:42 29.2 °C 15.7 °C 1019.2 hPa Calm   3.2 km/h 44 % 0.0 mm
16:47 29.2 °C 16.0 °C 1019.2 hPa Calm   3.2 km/h 45 % 0.0 mm
16:52 29.3 °C 15.8 °C 1019.2 hPa Calm   3.2 km/h 44 % 0.0 mm
16:57 30.1 °C 16.5 °C 1019.2 hPa Calm   12.9 km/h 44 % 0.0 mm
17:02 29.7 °C 15.0 °C 1019.2 hPa WNW 6.4 km/h 12.9 km/h 41 % 1.0 mm
17:07 28.7 °C 15.2 °C 1019.2 hPa WSW 8.0 km/h 12.9 km/h 44 % 1.0 mm
17:12 28.4 °C 15.7 °C 1018.8 hPa NW 4.8 km/h 12.9 km/h 46 % 1.0 mm
17:17 28.4 °C 15.0 °C 1018.8 hPa WSW 3.2 km/h 12.9 km/h 44 % 1.0 mm
17:22 28.3 °C 15.6 °C 1018.8 hPa Calm   12.9 km/h 46 % 1.0 mm
17:27 28.2 °C 15.1 °C 1018.8 hPa WNW 6.4 km/h 11.3 km/h 45 % 1.0 mm
17:32 28.1 °C 15.4 °C 1018.8 hPa South 1.6 km/h 11.3 km/h 46 % 1.0 mm
17:37 28.2 °C 15.5 °C 1018.8 hPa West 3.2 km/h 11.3 km/h 46 % 1.0 mm
17:42 28.3 °C 15.2 °C 1018.8 hPa WSW 6.4 km/h 11.3 km/h 45 % 1.0 mm
17:47 28.0 °C 15.0 °C 1018.8 hPa SSW 3.2 km/h 8.0 km/h 45 % 1.0 mm
17:52 27.9 °C 15.2 °C 1018.8 hPa NW 1.6 km/h 8.0 km/h 46 % 1.0 mm
17:57 28.0 °C 15.6 °C 1018.8 hPa NW 3.2 km/h 9.7 km/h 47 % 1.0 mm
18:02 27.9 °C 15.5 °C 1018.8 hPa SW 1.6 km/h 9.7 km/h 47 % 0.0 mm
18:07 27.9 °C 15.5 °C 1018.8 hPa West 1.6 km/h 9.7 km/h 47 % 0.0 mm
18:12 27.8 °C 15.5 °C 1018.8 hPa West 3.2 km/h 9.7 km/h 47 % 0.0 mm
18:17 27.8 °C 15.5 °C 1018.8 hPa WNW 4.8 km/h 8.0 km/h 47 % 0.0 mm
18:22 27.7 °C 16.0 °C 1018.8 hPa WNW 6.4 km/h 8.0 km/h 49 % 0.0 mm
18:27 27.6 °C 15.6 °C 1018.8 hPa WNW 8.0 km/h 8.0 km/h 48 % 0.0 mm
18:32 27.5 °C 15.8 °C 1018.8 hPa WNW 3.2 km/h 11.3 km/h 49 % 0.0 mm
18:42 27.4 °C 15.7 °C 1018.8 hPa West 3.2 km/h 12.9 km/h 49 % 0.0 mm
18:47 27.4 °C 15.4 °C 1018.8 hPa WNW 6.4 km/h 6.4 km/h 48 % 0.0 mm
18:52 27.3 °C 15.6 °C 1018.8 hPa WNW 4.8 km/h 6.4 km/h 49 % 0.0 mm
18:57 27.3 °C 15.3 °C 1018.8 hPa West 1.6 km/h 8.0 km/h 48 % 0.0 mm
19:02 27.3 °C 15.6 °C 1018.8 hPa WNW 6.4 km/h 8.0 km/h 49 % 0.0 mm
19:07 27.3 °C 15.3 °C 1018.8 hPa WNW 3.2 km/h 8.0 km/h 48 % 0.0 mm
19:12 27.4 °C 15.4 °C 1018.8 hPa Calm   8.0 km/h 48 % 0.0 mm
19:17 27.7 °C 16.0 °C 1018.8 hPa WNW 6.4 km/h 8.0 km/h 49 % 0.0 mm
19:22 27.8 °C 15.8 °C 1018.8 hPa NNW 1.6 km/h 8.0 km/h 48 % 0.0 mm
19:27 28.0 °C 16.0 °C 1018.8 hPa WNW 3.2 km/h 9.7 km/h 48 % 0.0 mm
19:32 27.8 °C 15.5 °C 1018.8 hPa WSW 1.6 km/h 9.7 km/h 47 % 0.0 mm
19:37 27.8 °C 15.8 °C 1018.8 hPa NNW 3.2 km/h 9.7 km/h 48 % 0.0 mm
19:42 27.7 °C 15.7 °C 1018.8 hPa NNW 4.8 km/h 9.7 km/h 48 % 0.0 mm
19:47 27.6 °C 15.9 °C 1018.8 hPa NNW 1.6 km/h 9.7 km/h 49 % 0.0 mm
19:52 27.7 °C 16.0 °C 1018.8 hPa NW 4.8 km/h 9.7 km/h 49 % 0.0 mm
19:57 27.6 °C 15.9 °C 1018.8 hPa NNE 4.8 km/h 6.4 km/h 49 % 0.0 mm
20:02 27.4 °C 15.7 °C 1018.8 hPa NNW 6.4 km/h 6.4 km/h 49 % 0.0 mm
20:07 27.3 °C 16.0 °C 1018.8 hPa NW 1.6 km/h 8.0 km/h 50 % 0.0 mm
20:12 27.4 °C 15.7 °C 1018.8 hPa North 3.2 km/h 8.0 km/h 49 % 0.0 mm
20:17 27.4 °C 15.7 °C 1018.8 hPa NNE 3.2 km/h 8.0 km/h 49 % 0.0 mm
20:22 27.5 °C 16.1 °C 1018.8 hPa NNW 4.8 km/h 8.0 km/h 50 % 0.0 mm
20:27 27.4 °C 16.1 °C 1018.5 hPa NNW 1.6 km/h 8.0 km/h 50 % 0.0 mm
20:32 27.3 °C 16.0 °C 1018.8 hPa Calm   8.0 km/h 50 % 0.0 mm
20:42 27.2 °C 16.2 °C 1018.8 hPa WNW 1.6 km/h 8.0 km/h 51 % 0.0 mm
20:47 27.2 °C 16.2 °C 1018.8 hPa WNW 1.6 km/h 4.8 km/h 51 % 0.0 mm
20:57 26.7 °C 16.0 °C 1018.8 hPa Calm   3.2 km/h 52 % 0.0 mm
21:02 26.5 °C 16.1 °C 1018.8 hPa NNW 1.6 km/h 3.2 km/h 53 % 0.0 mm
21:07 26.3 °C 16.2 °C 1018.8 hPa Calm   3.2 km/h 54 % 0.0 mm
21:12 26.0 °C 16.3 °C 1018.8 hPa WNW 1.6 km/h 3.2 km/h 55 % 0.0 mm
21:17 25.8 °C 16.1 °C 1018.8 hPa Calm   3.2 km/h 55 % 0.0 mm
21:22 25.6 °C 16.2 °C 1018.8 hPa NW 1.6 km/h 3.2 km/h 56 % 0.0 mm
21:27 25.4 °C 16.3 °C 1018.8 hPa Calm   3.2 km/h 57 % 0.0 mm
21:32 25.2 °C 16.1 °C 1018.8 hPa Calm   3.2 km/h 57 % 0.0 mm
21:37 25.1 °C 16.3 °C 1018.8 hPa NNW 3.2 km/h 3.2 km/h 58 % 0.0 mm
21:42 24.9 °C 16.1 °C 1019.2 hPa NNW 3.2 km/h 3.2 km/h 58 % 0.0 mm
21:47 24.8 °C 16.2 °C 1019.2 hPa Calm   3.2 km/h 59 % 0.0 mm
21:52 24.8 °C 16.5 °C 1019.2 hPa Calm   3.2 km/h 60 % 0.0 mm
21:57 24.6 °C 16.3 °C 1019.2 hPa NNW 1.6 km/h 3.2 km/h 60 % 0.0 mm
22:02 24.5 °C 16.5 °C 1019.2 hPa NNW 3.2 km/h 3.2 km/h 61 % 0.0 mm
22:07 24.4 °C 16.4 °C 1019.5 hPa NNW 1.6 km/h 4.8 km/h 61 % 0.0 mm
22:17 24.1 °C 16.4 °C 1019.5 hPa NW 1.6 km/h 4.8 km/h 62 % 0.0 mm
22:22 23.9 °C 16.4 °C 1019.5 hPa Calm   4.8 km/h 63 % 0.0 mm
22:27 23.7 °C 16.5 °C 1019.5 hPa NW 1.6 km/h 3.2 km/h 64 % 0.0 mm
22:32 23.5 °C 16.5 °C 1019.5 hPa Calm   3.2 km/h 65 % 0.0 mm
22:42 23.3 °C 16.6 °C 1019.5 hPa WNW 1.6 km/h 3.2 km/h 66 % 0.0 mm
22:47 23.2 °C 16.5 °C 1019.5 hPa Calm   3.2 km/h 66 % 0.0 mm
22:52 22.9 °C 16.4 °C 1019.5 hPa NW 9.7 km/h 9.7 km/h 67 % 0.0 mm
22:57 22.8 °C 16.6 °C 1019.9 hPa WNW 6.4 km/h 11.3 km/h 68 % 0.0 mm
23:02 22.7 °C 16.7 °C 1019.9 hPa North 4.8 km/h 11.3 km/h 69 % 0.0 mm
23:07 22.6 °C 17.1 °C 1019.9 hPa WNW 12.9 km/h 12.9 km/h 71 % 0.0 mm
23:12 22.5 °C 17.2 °C 1019.9 hPa NW 6.4 km/h 12.9 km/h 72 % 0.0 mm
23:17 22.4 °C 17.3 °C 1019.9 hPa West 4.8 km/h 12.9 km/h 73 % 0.0 mm
23:22 22.4 °C 17.5 °C 1019.9 hPa North 1.6 km/h 12.9 km/h 74 % 0.0 mm
23:27 22.3 °C 17.7 °C 1019.9 hPa NNW 3.2 km/h 11.3 km/h 75 % 0.0 mm
23:32 22.2 °C 17.8 °C 1019.9 hPa NW 4.8 km/h 11.3 km/h 76 % 0.0 mm
23:37 22.1 °C 17.7 °C 1019.9 hPa NNW 8.0 km/h 9.7 km/h 76 % 0.0 mm
23:47 22.1 °C 17.9 °C 1019.9 hPa NW 1.6 km/h 12.9 km/h 77 % 0.0 mm
23:52 22.1 °C 17.9 °C 1019.9 hPa NNW 3.2 km/h 12.9 km/h 77 % 0.0 mm
23:57 22.0 °C 17.8 °C 1019.9 hPa North 4.8 km/h 9.7 km/h 77 % 0.0 mm
Meteo18
Compliments of Weather Underground - 4 mb

Script developed by  Jim McMurry - jmcmurry@mwt.net Adapted for the template by  Wim van der Kuil - Leuven-Template.eu

You find our weather info also at:

European Weather Network

Weather Underground

Equipment we use:

Weather-station
Davis Vue

Weather-program
Meteohub

Weather-server
Raspberry PI 2 B+

Provider
1 and 1

Davis Vue

Meteohub

Raspberry PI 2 B+

1 and 1